Weather reports worldwide

Advertisment
Gogerddan, United Kingdom (99150): temperature & dewpoint: 12.09.2019 04:00:00 - 18.09.2019 04:00:00 (BST)Gogerddan, United Kingdom (99150): temperature -20cm & temperature -100cm: 12.09.2019 04:00:00 - 18.09.2019 04:00:00 (BST)Gogerddan, United Kingdom (99150): precipitation: 12.09.2019 04:00:00 - 18.09.2019 04:00:00 (BST)
Date & Time tt [°C] td [°C] tt -20cm [°C] tt -100cm [°C] rr [mm]
18.09.2019 04:00:00 6,0 5,4 - - 0,0
18.09.2019 03:00:00 5,5 4,8 - - 0,0
18.09.2019 02:00:00 6,5 5,9 - - 0,0
18.09.2019 01:00:00 6,3 5,5 - - 0,0
18.09.2019 00:00:00 7,4 6,4 - - 0,0
17.09.2019 23:00:00 9,3 7,9 - - 0,0
17.09.2019 22:00:00 9,5 8,1 - - 0,0
17.09.2019 21:00:00 10,0 8,3 - - 0,0
17.09.2019 20:00:00 12,4 9,4 - - 0,0
17.09.2019 19:00:00 15,1 9,5 - - 0,0
17.09.2019 18:00:00 15,9 9,8 - - 0,0
17.09.2019 17:00:00 16,5 9,4 - - 0,0
17.09.2019 16:00:00 17,0 10,0 - - 0,0
17.09.2019 15:00:00 16,7 10,0 - - 0,0
17.09.2019 14:00:00 16,1 9,6 - - 0,0
17.09.2019 13:00:00 16,1 10,0 - - 0,0
17.09.2019 12:00:00 14,9 8,0 - - 0,0
17.09.2019 11:00:00 14,2 8,7 - - 0,0
17.09.2019 10:00:00 12,9 10,7 15,9 15,5 0,0
17.09.2019 09:00:00 9,2 8,8 - - 0,0
17.09.2019 08:00:00 6,0 5,6 - - 0,0
17.09.2019 07:00:00 5,0 4,6 - - 0,0
17.09.2019 06:00:00 4,7 4,0 - - 0,0
17.09.2019 05:00:00 5,5 4,9 - - 0,0
17.09.2019 04:00:00 6,6 6,0 - - 0,0
17.09.2019 03:00:00 6,8 6,0 - - 0,0
17.09.2019 02:00:00 7,6 6,6 - - 0,0
17.09.2019 01:00:00 9,1 7,9 - - 0,0
17.09.2019 00:00:00 11,1 8,5 - - 0,0
16.09.2019 23:00:00 11,7 9,2 - - 0,0
16.09.2019 22:00:00 13,0 10,0 - - 0,0
16.09.2019 21:00:00 13,0 11,6 - - 0,0
16.09.2019 20:00:00 14,4 12,3 - - 0,0
16.09.2019 19:00:00 16,2 13,5 - - 0,0
16.09.2019 18:00:00 17,5 13,6 - - 0,0
16.09.2019 17:00:00 17,9 14,2 - - 0,0
16.09.2019 16:00:00 18,2 14,4 - - 0,0
16.09.2019 15:00:00 18,2 14,9 - - 0,0
16.09.2019 14:00:00 17,8 14,7 - - 0,0
16.09.2019 13:00:00 17,7 15,1 - - 0,0
16.09.2019 12:00:00 16,8 15,5 - - 0,0
16.09.2019 11:00:00 16,7 16,2 - - 0,0
16.09.2019 10:00:00 16,1 15,7 16,0 15,5 0,2
16.09.2019 09:00:00 15,9 15,6 - - 0,6
16.09.2019 08:00:00 15,6 15,3 - - 0,6
16.09.2019 07:00:00 15,5 15,2 - - 0,4
16.09.2019 06:00:00 15,6 15,2 - - 1,0
16.09.2019 05:00:00 15,7 15,3 - - 0,4
16.09.2019 04:00:00 15,8 15,4 - - 1,4
16.09.2019 03:00:00 15,9 15,5 - - 1,0
16.09.2019 02:00:00 15,9 15,3 - - 0,6
16.09.2019 01:00:00 15,4 14,8 - - 0,0
16.09.2019 00:00:00 15,0 14,3 - - 0,6
15.09.2019 23:00:00 15,5 14,4 - - 0,0
15.09.2019 22:00:00 15,6 13,9 - - 0,0
15.09.2019 21:00:00 15,8 13,9 - - 0,0
15.09.2019 20:00:00 15,8 13,8 - - 0,0
15.09.2019 19:00:00 16,2 14,1 - - 0,0
15.09.2019 18:00:00 16,7 14,6 - - 0,0
15.09.2019 17:00:00 17,1 14,9 - - 0,0
15.09.2019 16:00:00 18,6 14,8 - - 0,0
15.09.2019 15:00:00 18,3 15,5 - - 0,0
15.09.2019 14:00:00 17,2 15,1 - - 0,0
15.09.2019 13:00:00 17,5 15,3 - - 0,0
15.09.2019 12:00:00 17,1 15,3 - - 0,0
15.09.2019 11:00:00 16,7 15,0 - - 0,0
15.09.2019 10:00:00 16,4 14,9 15,7 15,7 0,0
15.09.2019 09:00:00 14,9 13,2 - - 0,0
15.09.2019 08:00:00 14,3 12,8 - - 0,0
15.09.2019 07:00:00 13,8 12,4 - - 0,0
15.09.2019 06:00:00 13,4 11,8 - - 0,0
15.09.2019 05:00:00 13,5 12,0 - - 0,0
15.09.2019 04:00:00 12,8 12,0 - - 0,0
15.09.2019 03:00:00 11,2 10,7 - - 0,2
15.09.2019 02:00:00 10,7 10,1 - - 0,0
15.09.2019 01:00:00 10,3 9,7 - - 0,0
15.09.2019 00:00:00 10,6 9,9 - - 0,0
14.09.2019 23:00:00 11,4 10,8 - - 0,0
14.09.2019 22:00:00 11,6 10,6 - - 0,0
14.09.2019 21:00:00 12,7 11,4 - - 0,0
14.09.2019 20:00:00 14,3 12,3 - - 0,0
14.09.2019 19:00:00 16,4 12,9 - - 0,0
14.09.2019 18:00:00 17,8 12,4 - - 0,0
14.09.2019 17:00:00 18,7 12,9 - - 0,0
14.09.2019 16:00:00 19,3 13,3 - - 0,0
14.09.2019 15:00:00 19,1 13,0 - - 0,0
14.09.2019 14:00:00 19,1 11,2 - - 0,0
14.09.2019 13:00:00 19,7 11,6 - - 0,0
14.09.2019 12:00:00 19,2 11,4 - - 0,0
14.09.2019 11:00:00 18,2 10,5 - - 0,0
14.09.2019 10:00:00 15,7 8,5 15,5 15,7 0,0
14.09.2019 09:00:00 11,8 10,3 - - 0,0
14.09.2019 08:00:00 7,0 6,4 - - 0,0
14.09.2019 07:00:00 6,0 5,4 - - 0,0
14.09.2019 06:00:00 6,1 5,4 - - 0,0
14.09.2019 05:00:00 6,1 5,5 - - 0,0
14.09.2019 04:00:00 6,2 5,6 - - 0,0
14.09.2019 03:00:00 6,1 5,5 - - 0,0
14.09.2019 02:00:00 6,1 5,4 - - 0,0
14.09.2019 01:00:00 6,8 6,1 - - 0,0
14.09.2019 00:00:00 7,2 6,3 - - 0,0
13.09.2019 23:00:00 9,0 8,2 - - 0,0
13.09.2019 22:00:00 9,8 8,7 - - 0,0
13.09.2019 21:00:00 11,8 9,9 - - 0,0
13.09.2019 20:00:00 14,1 10,6 - - 0,0
13.09.2019 19:00:00 15,3 10,5 - - 0,0
13.09.2019 18:00:00 16,1 10,8 - - 0,0
13.09.2019 17:00:00 16,5 10,3 - - 0,0
13.09.2019 16:00:00 16,8 9,8 - - 0,0
13.09.2019 15:00:00 16,5 10,0 - - 0,0
13.09.2019 14:00:00 16,5 9,6 - - 0,0
13.09.2019 13:00:00 16,7 10,9 - - 0,0
13.09.2019 12:00:00 15,8 9,1 - - 0,0
13.09.2019 11:00:00 15,2 10,8 - - 0,0
13.09.2019 10:00:00 12,5 11,5 15,9 15,7 0,0
13.09.2019 09:00:00 9,9 9,7 - - 0,0
13.09.2019 08:00:00 6,8 6,5 - - 0,0
13.09.2019 07:00:00 6,3 5,9 - - 0,2
13.09.2019 06:00:00 6,8 6,4 - - 0,0
13.09.2019 05:00:00 7,4 6,9 - - 0,0
13.09.2019 04:00:00 7,9 7,4 - - 0,0
13.09.2019 03:00:00 8,2 7,5 - - 0,0
13.09.2019 02:00:00 9,8 9,0 - - 0,0
13.09.2019 01:00:00 11,5 10,2 - - 0,0
13.09.2019 00:00:00 12,9 10,9 - - 0,0
12.09.2019 23:00:00 13,1 11,7 - - 0,0
12.09.2019 22:00:00 14,6 13,0 - - 0,0
12.09.2019 21:00:00 15,6 14,4 - - 0,0
12.09.2019 20:00:00 16,2 15,7 - - 0,4
12.09.2019 19:00:00 16,7 16,2 - - 0,2
12.09.2019 18:00:00 16,9 16,3 - - 0,6
12.09.2019 17:00:00 17,0 16,2 - - 0,2
12.09.2019 16:00:00 16,8 16,2 - - 1,2
12.09.2019 15:00:00 16,7 15,4 - - 0,0
12.09.2019 14:00:00 18,7 14,5 - - 0,0
12.09.2019 13:00:00 17,6 14,8 - - 0,0
12.09.2019 12:00:00 17,8 15,8 - - 0,0
12.09.2019 11:00:00 17,6 15,8 - - 0,0
12.09.2019 10:00:00 17,0 15,5 16,2 15,7 0,0
12.09.2019 09:00:00 16,3 15,8 - - 0,4
12.09.2019 08:00:00 16,1 15,6 - - 0,2
12.09.2019 07:00:00 15,6 14,0 - - 0,0
12.09.2019 06:00:00 15,0 13,1 - - 0,0
12.09.2019 05:00:00 14,8 13,2 - - 0,0
12.09.2019 04:00:00 14,5 12,8 - - 0,0

tt = temperature
td = dewpoint
tt -20cm = temperature -20cm
tt -100cm = temperature -100cm
rr = precipitation

Next stations